createdAt,value
2022-11-21T00:01:21.326Z,92.40
2022-11-21T00:03:49.048Z,92.42
2022-11-21T00:06:17.114Z,92.91
2022-11-21T00:08:45.322Z,93.07
2022-11-21T00:11:12.809Z,93.07
2022-11-21T00:13:40.118Z,93.22
2022-11-21T00:16:12.551Z,93.23
2022-11-21T00:18:40.788Z,93.18
2022-11-21T00:21:11.892Z,93.01
2022-11-21T00:23:39.072Z,92.57
2022-11-21T00:26:11.373Z,92.46
2022-11-21T00:28:38.688Z,92.15
2022-11-21T00:31:06.257Z,92.45
2022-11-21T00:33:37.299Z,92.34
2022-11-21T00:36:09.213Z,92.31
2022-11-21T00:38:37.236Z,91.64
2022-11-21T00:41:04.612Z,91.77
2022-11-21T00:43:32.330Z,91.48
2022-11-21T00:46:01.464Z,91.24
2022-11-21T00:48:30.119Z,91.52
2022-11-21T00:50:57.199Z,91.05
2022-11-21T00:53:24.309Z,91.10
2022-11-21T00:55:51.074Z,91.09
2022-11-21T00:58:18.203Z,90.71
2022-11-21T01:00:45.080Z,90.57
2022-11-21T01:03:12.424Z,90.72
2022-11-21T01:05:39.288Z,90.62
2022-11-21T01:08:06.526Z,90.25
2022-11-21T01:10:35.026Z,90.21
2022-11-21T01:13:02.773Z,90.01
2022-11-21T01:15:29.790Z,89.86
2022-11-21T01:17:57.300Z,89.65
2022-11-21T01:20:24.126Z,90.19
2022-11-21T01:22:51.393Z,90.17
2022-11-21T01:25:18.393Z,90.04
2022-11-21T01:27:45.640Z,90.13
2022-11-21T01:30:14.501Z,90.15
2022-11-21T01:32:41.853Z,90.28
2022-11-21T01:35:08.822Z,90.61
2022-11-21T01:37:36.199Z,90.50
2022-11-21T01:40:04.083Z,90.54
2022-11-21T01:42:46.702Z,90.92
2022-11-21T01:45:51.465Z,90.97
2022-11-21T01:48:19.328Z,90.75
2022-11-21T01:50:46.306Z,90.77
2022-11-21T01:53:13.511Z,90.75
2022-11-21T01:55:40.409Z,90.75
2022-11-21T01:58:07.476Z,91.02
2022-11-21T02:00:38.507Z,90.86
2022-11-21T02:03:10.338Z,90.88
2022-11-21T02:05:39.207Z,91.15
2022-11-21T02:08:19.497Z,90.90
2022-11-21T02:11:13.585Z,91.21
2022-11-21T02:13:40.817Z,91.13
2022-11-21T02:16:08.389Z,91.38
2022-11-21T02:18:35.686Z,91.27
2022-11-21T02:21:23.474Z,91.29
2022-11-21T02:24:00.217Z,91.45
2022-11-21T02:26:27.443Z,91.76
2022-11-21T02:28:54.613Z,91.80
2022-11-21T02:31:21.471Z,92.02
2022-11-21T02:33:48.552Z,91.95
2022-11-21T02:36:41.582Z,92.03
2022-11-21T02:39:14.088Z,92.20
2022-11-21T02:41:48.656Z,92.29
2022-11-21T02:44:24.503Z,92.17
2022-11-21T02:46:52.130Z,92.52
2022-11-21T02:49:28.444Z,92.33
2022-11-21T02:51:55.340Z,92.25
2022-11-21T02:54:22.387Z,92.65
2022-11-21T02:56:49.190Z,92.64
2022-11-21T02:59:16.274Z,92.69
2022-11-21T03:01:43.177Z,92.80
2022-11-21T03:04:10.215Z,92.99
2022-11-21T03:06:37.214Z,92.63
2022-11-21T03:09:04.282Z,92.95
2022-11-21T03:11:31.132Z,92.91
2022-11-21T03:13:58.212Z,93.32
2022-11-21T03:16:24.977Z,93.18
2022-11-21T03:18:52.039Z,93.48
2022-11-21T03:21:18.894Z,93.43
2022-11-21T03:23:46.125Z,93.52
2022-11-21T03:26:13.316Z,93.24
2022-11-21T03:28:42.887Z,93.39
2022-11-21T03:31:09.862Z,93.23
2022-11-21T03:33:37.069Z,93.56
2022-11-21T03:36:04.117Z,93.54
2022-11-21T03:38:31.173Z,93.61
2022-11-21T03:40:58.173Z,93.67
2022-11-21T03:43:25.591Z,93.68
2022-11-21T03:45:52.408Z,93.67
2022-11-21T03:48:19.569Z,94.00
2022-11-21T03:50:46.417Z,94.04
2022-11-21T03:53:13.693Z,93.97
2022-11-21T03:55:43.140Z,93.97
2022-11-21T03:58:10.453Z,94.23
2022-11-21T04:00:37.289Z,94.21
2022-11-21T04:03:04.340Z,94.25
2022-11-21T04:05:31.135Z,94.16
2022-11-21T04:07:58.170Z,94.44
2022-11-21T04:10:25.029Z,94.26
2022-11-21T04:13:10.193Z,94.18
2022-11-21T04:15:37.438Z,94.04
2022-11-21T04:18:04.369Z,94.21
2022-11-21T04:20:31.409Z,94.35
2022-11-21T04:22:58.213Z,94.34
2022-11-21T04:25:25.282Z,94.22
2022-11-21T04:27:52.036Z,94.30
2022-11-21T04:30:19.244Z,94.30
2022-11-21T04:32:47.675Z,94.17
2022-11-21T04:35:15.036Z,94.13
2022-11-21T04:37:41.793Z,93.99
2022-11-21T04:40:09.383Z,94.18
2022-11-21T04:42:36.341Z,94.17
2022-11-21T04:45:03.788Z,94.29
2022-11-21T04:47:31.178Z,94.36
2022-11-21T04:49:58.732Z,94.45
2022-11-21T04:52:25.602Z,94.58
2022-11-21T04:54:52.727Z,94.46
2022-11-21T04:57:19.539Z,94.30
2022-11-21T04:59:46.585Z,94.67
2022-11-21T05:02:13.558Z,94.67
2022-11-21T05:04:40.708Z,94.62
2022-11-21T05:07:07.678Z,94.52
2022-11-21T05:09:34.891Z,94.49
2022-11-21T05:12:20.376Z,94.46
2022-11-21T05:14:47.511Z,94.51
2022-11-21T05:17:14.462Z,94.44
2022-11-21T05:19:41.545Z,94.57
2022-11-21T05:22:08.505Z,94.54
2022-11-21T05:24:35.665Z,94.50
2022-11-21T05:27:02.463Z,94.49
2022-11-21T05:29:29.695Z,94.52
2022-11-21T05:31:56.512Z,94.47
2022-11-21T05:34:23.886Z,94.51
2022-11-21T05:36:57.159Z,94.36
2022-11-21T05:39:25.377Z,94.53
2022-11-21T05:41:52.280Z,94.58
2022-11-21T05:44:19.418Z,94.84
2022-11-21T05:46:46.495Z,94.85
2022-11-21T05:49:13.858Z,95.03
2022-11-21T05:51:40.883Z,95.12
2022-11-21T05:54:07.999Z,95.04
2022-11-21T05:56:35.202Z,94.92
2022-11-21T05:59:02.261Z,95.06
2022-11-21T06:01:47.767Z,94.99
2022-11-21T06:04:14.975Z,95.05
2022-11-21T06:06:41.817Z,94.98
2022-11-21T06:09:08.905Z,94.76
2022-11-21T06:11:35.675Z,94.29
2022-11-21T06:14:02.793Z,94.17
2022-11-21T06:16:30.419Z,94.22
2022-11-21T06:18:58.885Z,93.97
2022-11-21T06:21:28.518Z,94.13
2022-11-21T06:23:57.487Z,94.51
2022-11-21T06:26:27.277Z,94.55
2022-11-21T06:28:54.739Z,94.74
2022-11-21T06:31:24.256Z,94.56
2022-11-21T06:33:56.404Z,94.50
2022-11-21T06:36:23.615Z,94.66
2022-11-21T06:38:53.565Z,94.51
2022-11-21T06:41:23.281Z,94.46
2022-11-21T06:43:50.545Z,94.76
2022-11-21T06:46:17.627Z,94.97
2022-11-21T06:48:45.165Z,95.00
2022-11-21T06:51:20.396Z,94.71
2022-11-21T06:53:55.792Z,94.61
2022-11-21T06:56:27.178Z,94.52
2022-11-21T06:58:54.561Z,94.58
2022-11-21T07:01:22.261Z,94.49
2022-11-21T07:03:49.534Z,94.04
2022-11-21T07:06:16.334Z,93.93
2022-11-21T07:08:43.578Z,93.56
2022-11-21T07:11:28.520Z,93.40
2022-11-21T07:13:56.705Z,93.15
2022-11-21T07:16:26.204Z,93.44
2022-11-21T07:18:54.086Z,92.90
2022-11-21T07:21:21.368Z,92.74
2022-11-21T07:23:50.545Z,92.95
2022-11-21T07:26:17.445Z,92.53
2022-11-21T07:28:44.661Z,92.53
2022-11-21T07:31:13.947Z,92.55
2022-11-21T07:33:43.739Z,91.72
2022-11-21T07:36:14.350Z,91.52
2022-11-21T07:38:42.131Z,91.51
2022-11-21T07:41:10.659Z,91.70
2022-11-21T07:43:38.706Z,90.94
2022-11-21T07:46:05.948Z,90.74
2022-11-21T07:48:33.204Z,90.40
2022-11-21T07:51:03.780Z,90.30
2022-11-21T07:53:31.011Z,90.45
2022-11-21T07:56:00.456Z,89.98
2022-11-21T07:58:45.392Z,89.60
2022-11-21T08:02:31.768Z,89.37
2022-11-21T08:04:59.209Z,89.28
2022-11-21T08:07:36.647Z,89.29
2022-11-21T08:10:04.819Z,89.57
2022-11-21T08:12:33.177Z,89.52
2022-11-21T08:15:00.646Z,88.88
2022-11-21T08:17:27.762Z,88.92
2022-11-21T08:19:55.218Z,88.95
2022-11-21T08:22:22.152Z,88.86
2022-11-21T08:25:00.526Z,88.71
2022-11-21T08:27:57.840Z,88.10
2022-11-21T08:30:25.517Z,87.95
2022-11-21T08:32:52.888Z,88.01
2022-11-21T08:35:20.500Z,88.13
2022-11-21T08:38:00.752Z,87.70
2022-11-21T08:40:29.871Z,87.60
2022-11-21T08:43:01.680Z,87.19
2022-11-21T08:45:29.418Z,87.09
2022-11-21T08:47:56.900Z,87.49
2022-11-21T08:50:24.855Z,87.29
2022-11-21T08:52:52.158Z,87.99
2022-11-21T08:55:19.661Z,87.49
2022-11-21T08:57:46.571Z,87.26
2022-11-21T09:00:14.674Z,86.56
2022-11-21T09:02:41.908Z,86.74
2022-11-21T09:05:09.892Z,86.77
2022-11-21T09:07:37.431Z,86.18
2022-11-21T09:10:05.336Z,84.82
2022-11-21T09:12:32.218Z,84.89
2022-11-21T09:15:17.908Z,84.58
2022-11-21T09:21:51.262Z,83.98
2022-11-21T09:24:18.536Z,83.85
2022-11-21T09:26:46.957Z,83.14
2022-11-21T09:29:15.236Z,83.43
2022-11-21T09:31:44.425Z,82.64
2022-11-21T09:34:12.080Z,82.24
2022-11-21T09:36:39.841Z,82.27
2022-11-21T09:39:07.532Z,82.44
2022-11-21T09:42:01.515Z,81.99
2022-11-21T09:44:43.892Z,82.55
2022-11-21T09:47:31.198Z,82.23
2022-11-21T09:50:04.699Z,82.17
2022-11-21T09:52:51.938Z,82.55
2022-11-21T09:55:36.505Z,82.94
2022-11-21T09:58:07.275Z,82.69
2022-11-21T10:00:36.358Z,83.13
2022-11-21T10:03:03.803Z,82.53
2022-11-21T10:05:43.987Z,82.58
2022-11-21T10:08:28.959Z,82.92
2022-11-21T10:11:14.149Z,82.45
2022-11-21T10:14:21.190Z,82.30
2022-11-21T10:17:28.786Z,82.17
2022-11-21T10:20:07.870Z,82.11
2022-11-21T10:23:12.393Z,82.22
2022-11-21T10:25:40.022Z,81.43
2022-11-21T10:28:26.395Z,81.34
2022-11-21T10:30:57.024Z,81.02
2022-11-21T10:33:33.038Z,80.77
2022-11-21T10:36:12.240Z,80.77
2022-11-21T10:38:43.314Z,79.87
2022-11-21T10:41:16.079Z,79.73
2022-11-21T10:44:09.808Z,79.85
2022-11-21T10:46:36.761Z,79.15
2022-11-21T10:49:04.773Z,79.19
2022-11-21T10:51:48.739Z,78.38
2022-11-21T10:54:34.430Z,77.71
2022-11-21T10:57:18.199Z,77.81
2022-11-21T11:00:01.269Z,78.11
2022-11-21T11:02:28.857Z,77.94
2022-11-21T11:05:20.880Z,78.03
2022-11-21T11:08:14.752Z,78.34
2022-11-21T11:11:02.249Z,77.79
2022-11-21T11:13:51.182Z,77.90
2022-11-21T11:16:24.302Z,77.54
2022-11-21T11:19:02.297Z,77.51
2022-11-21T11:21:38.734Z,77.12
2022-11-21T11:24:27.689Z,76.92
2022-11-21T11:27:05.103Z,76.02
2022-11-21T11:29:49.057Z,75.34
2022-11-21T11:32:21.535Z,75.34
2022-11-21T11:35:00.806Z,74.47
2022-11-21T11:37:42.441Z,74.45
2022-11-21T11:40:26.249Z,74.28
2022-11-21T11:43:49.814Z,73.72
2022-11-21T11:46:51.565Z,73.83
2022-11-21T11:49:52.750Z,73.79
2022-11-21T11:52:24.558Z,74.51
2022-11-21T11:55:01.985Z,74.39
2022-11-21T11:57:34.637Z,74.68
2022-11-21T12:00:16.362Z,74.36
2022-11-21T12:03:13.205Z,74.49
2022-11-21T12:05:56.924Z,74.62
2022-11-21T12:08:48.992Z,74.28
2022-11-21T12:11:44.254Z,73.16
2022-11-21T12:14:50.400Z,72.44
2022-11-21T12:17:21.533Z,72.28
2022-11-21T12:19:52.738Z,72.20
2022-11-21T12:22:20.037Z,72.38
2022-11-21T12:24:48.121Z,73.57
2022-11-21T12:27:18.487Z,73.16
2022-11-21T12:30:14.967Z,74.56
2022-11-21T12:32:55.947Z,75.25
2022-11-21T12:36:09.013Z,75.81
2022-11-21T12:38:45.138Z,76.34
2022-11-21T12:42:00.840Z,76.57
2022-11-21T12:45:24.087Z,77.17
2022-11-21T12:48:29.087Z,77.90
2022-11-21T12:51:14.946Z,77.96
2022-11-21T12:54:11.624Z,78.27
2022-11-21T12:56:38.927Z,78.80
2022-11-21T12:59:08.060Z,79.20
2022-11-21T13:01:53.033Z,79.59
2022-11-21T13:04:30.656Z,80.06
2022-11-21T13:06:59.787Z,80.70
2022-11-21T13:09:31.579Z,80.68
2022-11-21T13:12:05.480Z,81.28
2022-11-21T13:14:44.473Z,81.39
2022-11-21T13:17:27.264Z,81.19
2022-11-21T13:20:14.299Z,81.55
2022-11-21T13:22:42.097Z,81.24
2022-11-21T13:25:40.475Z,81.01
2022-11-21T13:28:14.383Z,81.24
2022-11-21T13:30:55.844Z,81.17
2022-11-21T13:33:36.189Z,81.20
2022-11-21T13:36:07.930Z,81.01
2022-11-21T13:38:53.842Z,81.10
2022-11-21T13:41:55.211Z,81.41
2022-11-21T13:44:32.211Z,81.86
2022-11-21T13:47:20.027Z,81.89
2022-11-21T13:50:10.078Z,81.98
2022-11-21T13:53:24.083Z,82.32
2022-11-21T13:56:18.981Z,81.97
2022-11-21T13:58:52.129Z,81.66
2022-11-21T14:01:37.490Z,81.80
2022-11-21T14:04:35.430Z,81.72
2022-11-21T14:07:24.185Z,81.80
2022-11-21T14:09:57.604Z,81.81
2022-11-21T14:12:44.024Z,82.04
2022-11-21T14:15:51.179Z,82.28
2022-11-21T14:18:24.555Z,82.00
2022-11-21T14:20:58.195Z,82.03
2022-11-21T14:23:29.233Z,82.01
2022-11-21T14:26:05.389Z,82.43
2022-11-21T14:28:35.411Z,82.49
2022-11-21T14:31:06.635Z,82.48
2022-11-21T14:33:36.268Z,82.22
2022-11-21T14:36:18.836Z,82.55
2022-11-21T14:39:07.629Z,82.94
2022-11-21T14:41:41.194Z,83.01
2022-11-21T14:44:08.548Z,82.98
2022-11-21T14:46:36.857Z,83.19
2022-11-21T14:49:16.468Z,82.87
2022-11-21T14:51:46.436Z,83.06
2022-11-21T14:54:26.850Z,82.98
2022-11-21T14:57:07.892Z,83.21
2022-11-21T14:59:43.024Z,83.26
2022-11-21T15:02:26.393Z,83.78
2022-11-21T15:04:58.270Z,84.46
2022-11-21T15:07:36.954Z,84.83
2022-11-21T15:10:27.291Z,85.09
2022-11-21T15:12:59.508Z,85.23
2022-11-21T15:15:50.114Z,85.56
2022-11-21T15:18:27.969Z,85.97
2022-11-21T15:21:16.519Z,86.10
2022-11-21T15:23:44.545Z,86.17
2022-11-21T15:26:31.560Z,86.36
2022-11-21T15:29:00.801Z,86.38
2022-11-21T15:31:28.466Z,86.64
2022-11-21T15:37:08.279Z,87.18
2022-11-21T15:39:37.994Z,87.46
2022-11-21T15:42:44.255Z,87.91
2022-11-21T15:45:19.754Z,87.97
2022-11-21T15:47:47.519Z,88.35
2022-11-21T15:50:16.866Z,88.36
2022-11-21T15:52:49.029Z,88.39
2022-11-21T15:55:21.623Z,88.64
2022-11-21T15:57:48.831Z,88.81
2022-11-21T16:00:17.414Z,89.08
2022-11-21T16:02:44.571Z,88.98
2022-11-21T16:05:14.645Z,89.33
2022-11-21T16:07:42.059Z,89.02
2022-11-21T16:10:19.464Z,89.57
2022-11-21T16:12:49.937Z,89.84
2022-11-21T16:15:17.225Z,90.31
2022-11-21T16:17:45.746Z,90.24
2022-11-21T16:20:15.054Z,90.03
2022-11-21T16:22:47.139Z,90.23
2022-11-21T16:25:16.264Z,90.70
2022-11-21T16:27:43.061Z,90.83
2022-11-21T16:30:10.773Z,90.69
2022-11-21T16:32:37.603Z,91.00
2022-11-21T16:35:06.147Z,90.96
2022-11-21T16:37:34.299Z,91.28
2022-11-21T16:40:01.989Z,91.13
2022-11-21T16:42:28.869Z,90.97
2022-11-21T16:44:56.266Z,91.37
2022-11-21T16:47:23.149Z,91.38
2022-11-21T16:49:50.478Z,91.49
2022-11-21T16:52:18.375Z,91.48
2022-11-21T16:54:47.259Z,91.40
2022-11-21T16:57:14.150Z,91.06
2022-11-21T16:59:41.353Z,90.98
2022-11-21T17:02:10.057Z,91.27
2022-11-21T17:04:37.602Z,91.46
2022-11-21T17:07:04.593Z,91.55
2022-11-21T17:09:31.765Z,91.69
2022-11-21T17:11:59.212Z,91.55
2022-11-21T17:14:26.884Z,91.54
2022-11-21T17:16:54.302Z,91.54
2022-11-21T17:19:22.417Z,91.60
2022-11-21T17:21:49.158Z,91.38
2022-11-21T17:24:16.523Z,91.29
2022-11-21T17:26:43.457Z,91.44
2022-11-21T17:29:12.999Z,91.49
2022-11-21T17:31:41.869Z,91.70
2022-11-21T17:34:09.315Z,91.51
2022-11-21T17:36:36.363Z,91.60
2022-11-21T17:39:03.641Z,91.63
2022-11-21T17:41:30.517Z,91.33
2022-11-21T17:43:58.782Z,91.91
2022-11-21T17:46:26.840Z,91.45
2022-11-21T17:48:58.201Z,91.87
2022-11-21T17:51:29.389Z,91.88
2022-11-21T17:53:57.625Z,91.88
2022-11-21T17:56:27.863Z,91.95
2022-11-21T17:58:56.151Z,91.94
2022-11-21T18:01:23.305Z,92.25
2022-11-21T18:03:55.011Z,92.19
2022-11-21T18:06:22.054Z,92.18
2022-11-21T18:08:50.677Z,92.07
2022-11-21T18:11:21.099Z,92.30
2022-11-21T18:13:50.003Z,92.25
2022-11-21T18:16:19.674Z,92.28
2022-11-21T18:18:47.829Z,92.13
2022-11-21T18:21:18.507Z,92.07
2022-11-21T18:23:47.123Z,92.15
2022-11-21T18:26:21.238Z,92.20
2022-11-21T18:29:01.769Z,92.53
2022-11-21T18:31:37.576Z,92.50
2022-11-21T18:34:06.605Z,92.57
2022-11-21T18:36:33.752Z,92.63
2022-11-21T18:39:07.249Z,92.23
2022-11-21T18:41:39.144Z,92.30
2022-11-21T18:44:07.069Z,92.27
2022-11-21T18:46:36.795Z,92.01
2022-11-21T18:49:07.024Z,91.74
2022-11-21T18:51:35.530Z,91.92
2022-11-21T18:54:08.711Z,91.87
2022-11-21T18:56:37.844Z,91.89
2022-11-21T18:59:06.646Z,91.86
2022-11-21T19:01:36.606Z,91.90
2022-11-21T19:04:04.222Z,92.05
2022-11-21T19:06:31.744Z,92.09
2022-11-21T19:08:59.550Z,92.08
2022-11-21T19:11:28.696Z,92.31
2022-11-21T19:13:57.814Z,92.31
2022-11-21T19:16:27.110Z,92.23
2022-11-21T19:19:31.928Z,92.28
2022-11-21T19:22:01.133Z,92.14
2022-11-21T19:24:28.222Z,92.24
2022-11-21T19:26:55.211Z,91.95
2022-11-21T19:29:22.375Z,92.16
2022-11-21T19:31:49.637Z,92.01
2022-11-21T19:34:17.104Z,92.12
2022-11-21T19:36:45.096Z,92.14
2022-11-21T19:39:12.854Z,92.02
2022-11-21T19:41:40.233Z,92.11
2022-11-21T19:44:07.386Z,92.28
2022-11-21T19:46:37.580Z,92.13
2022-11-21T19:49:06.256Z,92.25
2022-11-21T19:51:39.256Z,92.54
2022-11-21T19:54:08.206Z,92.85
2022-11-21T19:56:35.865Z,93.04
2022-11-21T19:59:03.669Z,93.18
2022-11-21T20:01:32.271Z,92.94
2022-11-21T20:04:02.446Z,93.24
2022-11-21T20:06:32.769Z,93.29
2022-11-21T20:09:12.065Z,93.69
2022-11-21T20:11:40.803Z,93.67
2022-11-21T20:14:08.993Z,93.90
2022-11-21T20:16:38.705Z,94.14
2022-11-21T20:19:11.323Z,93.84
2022-11-21T20:21:39.190Z,94.09
2022-11-21T20:24:07.023Z,93.82
2022-11-21T20:26:35.010Z,93.73
2022-11-21T20:29:02.686Z,93.63
2022-11-21T20:31:32.221Z,93.86
2022-11-21T20:34:05.199Z,93.84
2022-11-21T20:36:33.930Z,94.03
2022-11-21T20:39:04.813Z,94.18
2022-11-21T20:41:36.737Z,94.17
2022-11-21T20:45:20.334Z,94.35
2022-11-21T20:46:59.145Z,94.34
2022-11-21T20:49:26.564Z,94.63
2022-11-21T20:54:40.817Z,95.61
2022-11-21T20:57:13.246Z,95.64
2022-11-21T20:59:42.395Z,96.08
2022-11-21T21:02:12.485Z,95.96
2022-11-21T21:04:58.026Z,96.04
2022-11-21T21:07:25.459Z,96.09
2022-11-21T21:09:53.595Z,95.85
2022-11-21T21:12:20.832Z,95.98
2022-11-21T21:14:47.854Z,95.64
2022-11-21T21:17:14.922Z,95.61
2022-11-21T21:19:41.788Z,95.48
2022-11-21T21:22:09.179Z,95.45
2022-11-21T21:24:36.217Z,95.56
2022-11-21T21:27:03.667Z,95.54
2022-11-21T21:29:30.882Z,95.51
2022-11-21T21:31:58.516Z,95.67
2022-11-21T21:34:26.296Z,95.58
2022-11-21T21:36:53.665Z,95.58
2022-11-21T21:39:20.617Z,95.60
2022-11-21T21:41:48.127Z,95.85
2022-11-21T21:44:15.742Z,95.83
2022-11-21T21:46:43.760Z,95.63
2022-11-21T21:49:11.123Z,95.67
2022-11-21T21:51:38.548Z,95.66
2022-11-21T21:54:06.617Z,95.61
2022-11-21T21:56:35.169Z,95.56
2022-11-21T21:59:02.079Z,95.67
2022-11-21T22:01:31.342Z,95.69
2022-11-21T22:04:01.384Z,95.42
2022-11-21T22:06:29.985Z,95.58
2022-11-21T22:08:57.095Z,95.31
2022-11-21T22:11:30.125Z,95.24
2022-11-21T22:14:02.899Z,95.50
2022-11-21T22:16:31.194Z,95.53
2022-11-21T22:18:58.438Z,95.35
2022-11-21T22:21:28.605Z,95.50
2022-11-21T22:24:23.611Z,95.50
2022-11-21T22:26:45.332Z,95.59
2022-11-21T22:29:12.229Z,95.68
2022-11-21T22:31:39.577Z,95.72
2022-11-21T22:34:06.431Z,95.65
2022-11-21T22:36:33.880Z,95.57
2022-11-21T22:39:00.921Z,95.47
2022-11-21T22:41:28.382Z,95.56
2022-11-21T22:43:57.689Z,95.35
2022-11-21T22:46:27.228Z,95.42
2022-11-21T22:48:54.708Z,95.45
2022-11-21T22:51:25.169Z,95.34
2022-11-21T22:53:53.236Z,95.42
2022-11-21T22:56:23.060Z,95.32
2022-11-21T22:58:50.609Z,95.31
2022-11-21T23:01:20.316Z,95.26
2022-11-21T23:03:47.827Z,95.35
2022-11-21T23:06:18.096Z,95.72
2022-11-21T23:08:46.108Z,95.67
2022-11-21T23:11:18.594Z,95.67
2022-11-21T23:13:47.407Z,95.89
2022-11-21T23:16:16.033Z,96.01
2022-11-21T23:18:43.597Z,95.89
2022-11-21T23:21:12.011Z,95.96
2022-11-21T23:23:38.814Z,95.90
2022-11-21T23:26:06.827Z,95.80
2022-11-21T23:28:34.289Z,95.96
2022-11-21T23:31:01.464Z,96.00
2022-11-21T23:33:28.543Z,96.07
2022-11-21T23:35:57.026Z,96.13
2022-11-21T23:38:24.191Z,95.96
2022-11-21T23:40:51.501Z,96.03
2022-11-21T23:43:18.840Z,96.13
2022-11-21T23:45:53.697Z,96.17
2022-11-21T23:48:22.106Z,95.95
2022-11-21T23:50:52.712Z,96.00
2022-11-21T23:53:20.857Z,96.11
2022-11-21T23:55:48.531Z,96.24
2022-11-21T23:58:16.312Z,96.24
